Alsip, IL

4:03 AM CDT on October 24, 2014 (GMT -0500)
Southwest Ball Hockey | Change Station
CLOSE
Current Station
Personal Weather Station
Location: Alsip, IL
Elevation: 617 ft
Nearby Weather Stations

Elev 617 ft 41.68 °N, 87.76 °W | Updated 3 seconds ago

Overcast
Overcast
53.2 °F
Feels Like 53.2 °F
N
0.0
Wind Variable Wind from ESE
Gusts 0.0 mph

Today
High -- | Low -- °F
--% Chance of Precip.
Yesterday
High -- | Low -- °F
Precip. -- in
7:13 AM 5:56 PM
New Moon, 0% visible
Pressure 30.04 in
Visibility 10.0 miles
Clouds Overcast 2300 ft
Dew Point 47 °F
Humidity 78%
Rainfall 0.00 in
Snow Depth Not available.
UV 0 out of 12
Pollen .30 out of 12
Ozone Good
PM2.5 Moderate
Flu Activity No Activity
METAR KMDW 240853Z 22005KT 10SM OVC023 13/07 A3005 RMK AO2 SLP173 T01280072 56002

More Conditions Fewer Conditions

Pressure 30.04 in
Visibility 10.0 miles
Clouds Overcast 2300 ft
Dew Point 47 °F
Humidity 78%
Rainfall 0.00 in
Snow Depth Not available.
UV 0 out of 12
Pollen .30 out of 12
Ozone Good
PM2.5 Moderate
Flu Activity No Activity
METAR KMDW 240853Z 22005KT 10SM OVC023 13/07 A3005 RMK AO2 SLP173 T01280072 56002

More Conditions Fewer Conditions

10-Day Weather Forecast

Almanac

Astronomy

Oct. 24, 2014 Rise Set
Actual Time 7:13 AM CDT 5:56 PM CDT
Civil Twilight 6:45 AM CDT 6:24 PM CDT
Nautical Twilight 6:12 AM CDT 6:57 PM CDT
Astronomical Twilight 5:40 AM CDT 7:29 PM CDT
Moon 7:52 AM CDT 6:35 PM CDT
Length of Visible Light 11h 39m
Length of Day
10h 42m
Tomorrow will be 2m 36s shorter.
New Moon, 0% of the Moon is Illuminated
Today
New Moon
Oct 30
First Quarter
Nov 6
Full
Nov 14
Last Quarter
Nov 22
New

Today's Extremes

State Highs State Lows

Community

WunderPhotos

Upload Photos

1,764,513 photos uploaded!

WunderBlogs® & News

Nearby

Air Quality

  Air Quality AQ Index Pollutant
Yesterday Moderate
PM2.5
Yesterday Good
OZONE
Current Moderate
PM2.5
Current Good
OZONE
Friday Moderate
PM2.5
Saturday Good
PM2.5
Sunday Good
PM2.5
Monday Moderate
PM2.5

Snow Depth

Station Depth Elevation
No new snow has been reported.

Earthquake Activity

City Distance Mag. Time & Date
No recent earthquake activity has been reported nearby.
Minimum magnitude displayed is 2.5.

Coastal Water Temperatures

Place Temperature
No Stations Reporting

Nearby Weather Stations